createdAt,value
2022-09-05T00:02:48.974Z,16.83
2022-09-05T00:07:59.820Z,16.79
2022-09-05T00:12:45.628Z,16.75
2022-09-05T00:17:52.722Z,16.65
2022-09-05T00:24:24.269Z,16.62
2022-09-05T00:37:54.201Z,16.45
2022-09-05T00:53:06.471Z,16.31
2022-09-05T00:58:00.247Z,16.29
2022-09-05T01:08:03.439Z,16.18
2022-09-05T01:13:05.227Z,16.1
2022-09-05T01:18:07.211Z,16.04
2022-09-05T01:23:09.158Z,15.98
2022-09-05T01:28:33.002Z,15.9
2022-09-05T01:43:15.225Z,15.77
2022-09-05T01:48:16.918Z,15.74
2022-09-05T01:53:19.141Z,15.71
2022-09-05T01:58:20.476Z,15.65
2022-09-05T02:03:22.697Z,15.63
2022-09-05T02:08:23.705Z,15.6
2022-09-05T02:13:25.357Z,15.55
2022-09-05T02:18:26.514Z,15.56
2022-09-05T02:23:40.590Z,15.5
2022-09-05T02:28:29.499Z,15.48
2022-09-05T02:33:31.278Z,15.45
2022-09-05T02:39:47.550Z,15.37
2022-09-05T02:45:15.870Z,15.37
2022-09-05T02:48:36.525Z,15.37
2022-09-05T02:57:18.968Z,15.31
2022-09-05T02:59:05.990Z,15.29
2022-09-05T03:03:41.071Z,15.28
2022-09-05T03:08:42.507Z,15.21
2022-09-05T03:13:48.836Z,15.22
2022-09-05T03:18:45.439Z,15.18
2022-09-05T03:23:47.374Z,15.14
2022-09-05T03:28:48.665Z,15.13
2022-09-05T03:33:50.190Z,15.08
2022-09-05T03:38:51.666Z,15.07
2022-09-05T03:43:53.097Z,15.05
2022-09-05T03:48:55.236Z,14.98
2022-09-05T03:57:10.164Z,14.97
2022-09-05T03:58:59.607Z,14.96
2022-09-05T04:07:38.807Z,14.9
2022-09-05T04:09:02.516Z,14.9
2022-09-05T04:14:03.901Z,14.88
2022-09-05T04:19:05.621Z,14.81
2022-09-05T04:24:07.407Z,14.8
2022-09-05T04:29:09.220Z,14.8
2022-09-05T04:34:11.175Z,14.78
2022-09-05T04:34:17.517Z,14.78
2022-09-05T04:39:19.382Z,14.78
2022-09-05T04:44:20.693Z,14.78
2022-09-05T04:49:24.392Z,14.76
2022-09-05T04:54:23.903Z,14.74
2022-09-05T04:59:59.866Z,14.69
2022-09-05T05:06:06.361Z,14.69
2022-09-05T05:09:28.308Z,14.71
2022-09-05T05:17:43.014Z,14.73
2022-09-05T05:19:31.733Z,14.8
2022-09-05T05:24:33.668Z,14.86
2022-09-05T05:29:36.547Z,14.89
2022-09-05T05:34:37.499Z,14.96
2022-09-05T05:39:39.036Z,15.04
2022-09-05T05:44:40.439Z,15.14
2022-09-05T05:49:41.989Z,15.36
2022-09-05T05:54:43.468Z,15.63
2022-09-05T05:59:45.976Z,16
2022-09-05T06:04:47.711Z,16.41
2022-09-05T06:11:53.029Z,16.79
2022-09-05T06:15:08.443Z,17.31
2022-09-05T06:20:06.922Z,17.81
2022-09-05T06:24:54.553Z,18.29
2022-09-05T06:29:55.856Z,18.74
2022-09-05T06:34:59.858Z,19.03
2022-09-05T06:39:59.173Z,19.37
2022-09-05T06:45:06.403Z,19.78
2022-09-05T06:50:04.365Z,20.28
2022-09-05T06:55:04.722Z,20.78
2022-09-05T07:00:06.692Z,20.96
2022-09-05T07:05:24.237Z,21.04
2022-09-05T07:10:34.945Z,21.04
2022-09-05T07:20:12.894Z,21.15
2022-09-05T07:25:16.181Z,21.26
2022-09-05T07:30:16.272Z,21.53
2022-09-05T07:35:17.760Z,21.68
2022-09-05T07:40:25.573Z,21.61
2022-09-05T07:45:21.333Z,21.82
2022-09-05T07:51:00.751Z,22.29
2022-09-05T07:56:57.816Z,22.9
2022-09-05T08:00:29.074Z,23.71
2022-09-05T08:05:34.738Z,24.38
2022-09-05T08:10:31.269Z,25.57
2022-09-05T08:15:32.608Z,26.28
2022-09-05T08:20:32.983Z,26.56
2022-09-05T08:25:37.598Z,26.81
2022-09-05T08:30:37.049Z,26.66
2022-09-05T08:35:38.701Z,26.43
2022-09-05T08:40:40.545Z,26.46
2022-09-05T08:46:38.726Z,26.38
2022-09-05T08:50:44.192Z,26.18
2022-09-05T08:55:46.268Z,26.05
2022-09-05T09:00:50.480Z,25.98
2022-09-05T09:05:53.282Z,25.84
2022-09-05T09:10:51.849Z,25.83
2022-09-05T09:15:53.471Z,26.19
2022-09-05T09:20:55.037Z,26.85
2022-09-05T09:25:57.077Z,27.73
2022-09-05T09:30:58.746Z,28.67
2022-09-05T09:36:03.779Z,29.39
2022-09-05T09:41:02.851Z,29.98
2022-09-05T09:46:03.443Z,30.16
2022-09-05T09:51:05.390Z,30.53
2022-09-05T09:56:07.194Z,30.74
2022-09-05T10:01:20.309Z,31.2
2022-09-05T10:10:36.613Z,31.39
2022-09-05T10:11:33.909Z,31.3
2022-09-05T10:16:14.402Z,31.21
2022-09-05T10:21:17.801Z,31.22
2022-09-05T10:26:18.247Z,31.33
2022-09-05T10:31:37.467Z,31.05
2022-09-05T10:36:21.651Z,31.31
2022-09-05T10:41:23.240Z,31.37
2022-09-05T10:46:50.564Z,31.05
2022-09-05T10:51:27.702Z,31.25
2022-09-05T10:56:28.865Z,30.83
2022-09-05T11:02:25.087Z,30.71
2022-09-05T11:06:32.512Z,30.57
2022-09-05T11:11:34.957Z,30.24
2022-09-05T11:16:36.015Z,29.93
2022-09-05T11:21:37.649Z,29.55
2022-09-05T11:26:39.116Z,29.63
2022-09-05T11:31:54.815Z,29.5
2022-09-05T11:40:01.285Z,29.47
2022-09-05T11:41:44.160Z,29.13
2022-09-05T11:46:45.287Z,29.11
2022-09-05T11:51:47.209Z,28.89
2022-09-05T11:56:49.139Z,28.79
2022-09-05T12:01:50.912Z,28.32
2022-09-05T12:06:53.051Z,28.3
2022-09-05T12:11:54.966Z,28.14
2022-09-05T12:16:56.130Z,28.1
2022-09-05T12:21:58.025Z,27.98
2022-09-05T12:27:37.838Z,27.85
2022-09-05T12:32:08.785Z,27.72
2022-09-05T12:38:45.096Z,27.7
2022-09-05T12:42:11.112Z,27.47
2022-09-05T12:47:17.309Z,27.37
2022-09-05T12:52:08.285Z,27.48
2022-09-05T12:59:56.686Z,27.52
2022-09-05T13:03:10.262Z,27.52
2022-09-05T13:07:13.662Z,27.5
2022-09-05T13:14:51.127Z,27.43
2022-09-05T13:17:16.560Z,27.43
2022-09-05T13:22:17.710Z,27.52
2022-09-05T13:27:19.751Z,27.74
2022-09-05T13:34:49.381Z,27.7
2022-09-05T13:38:09.181Z,27.73
2022-09-05T13:42:25.196Z,27.76
2022-09-05T13:47:30.028Z,27.78
2022-09-05T13:52:29.147Z,27.83
2022-09-05T13:57:31.565Z,27.96
2022-09-05T14:02:32.437Z,28.02
2022-09-05T14:07:48.686Z,27.94
2022-09-05T14:12:37.151Z,27.73
2022-09-05T14:17:52.689Z,27.72
2022-09-05T14:22:37.906Z,27.7
2022-09-05T14:27:39.842Z,27.65
2022-09-05T14:35:35.303Z,27.7
2022-09-05T14:38:04.059Z,27.65
2022-09-05T14:42:44.602Z,27.6
2022-09-05T14:47:47.389Z,27.59
2022-09-05T15:28:00.888Z,27.81
2022-09-05T15:33:02.932Z,27.79
2022-09-05T15:38:04.985Z,27.72
2022-09-05T15:48:08.163Z,27.44
2022-09-05T15:58:12.048Z,27.26
2022-09-05T16:03:30.146Z,27.27
2022-09-05T16:10:32.217Z,27.33
2022-09-05T16:13:17.308Z,27.26
2022-09-05T16:22:19.422Z,27.19
2022-09-05T16:28:22.529Z,27.04
2022-09-05T16:33:24.262Z,26.98
2022-09-05T16:38:49.407Z,26.98
2022-09-05T16:43:27.593Z,27
2022-09-05T16:48:29.623Z,26.89
2022-09-05T16:53:32.178Z,26.76
2022-09-05T16:58:33.020Z,26.65
2022-09-05T17:03:34.776Z,26.56
2022-09-05T17:08:36.149Z,26.44
2022-09-05T17:13:38.184Z,26.42
2022-09-05T17:18:40.384Z,26.35
2022-09-05T17:26:00.507Z,26.22
2022-09-05T17:29:37.437Z,26.05
2022-09-05T17:33:45.471Z,25.91
2022-09-05T17:38:46.273Z,25.76
2022-09-05T17:43:47.852Z,25.55
2022-09-05T17:48:50.838Z,25.46
2022-09-05T17:53:51.474Z,25.33
2022-09-05T17:58:52.701Z,25.14
2022-09-05T18:03:53.882Z,24.96
2022-09-05T18:08:55.092Z,24.78
2022-09-05T18:13:56.551Z,24.6
2022-09-05T18:23:59.613Z,24.19
2022-09-05T18:29:01.379Z,24.11
2022-09-05T18:34:03.399Z,23.91
2022-09-05T18:39:04.515Z,23.77
2022-09-05T18:44:14.175Z,23.6
2022-09-05T18:50:22.568Z,23.41
2022-09-05T18:54:09.732Z,23.24
2022-09-05T18:59:11.129Z,23.07
2022-09-05T19:04:17.606Z,23.01
2022-09-05T19:09:14.725Z,22.78
2022-09-05T19:14:26.747Z,22.7
2022-09-05T19:19:17.855Z,22.56
2022-09-05T19:24:19.439Z,22.4
2022-09-05T19:34:05.797Z,22.26
2022-09-05T19:37:00.598Z,22.1
2022-09-05T19:41:42.924Z,22.07
2022-09-05T19:47:32.221Z,21.97
2022-09-05T19:49:27.888Z,21.86
2022-09-05T19:54:34.191Z,21.77
2022-09-05T19:59:33.874Z,21.63
2022-09-05T20:04:32.145Z,21.48
2022-09-05T20:09:34.230Z,21.34
2022-09-05T20:14:35.903Z,21.22
2022-09-05T20:19:37.475Z,21.2
2022-09-05T20:24:38.568Z,21.08
2022-09-05T20:29:43.500Z,20.98
2022-09-05T20:35:56.883Z,20.89
2022-09-05T20:43:13.176Z,20.77
2022-09-05T20:44:45.592Z,20.65
2022-09-05T20:54:11.578Z,20.52
2022-09-05T20:54:49.024Z,20.41
2022-09-05T20:59:49.952Z,20.35
2022-09-05T21:04:51.299Z,20.35
2022-09-05T21:09:52.510Z,20.18
2022-09-05T21:14:53.927Z,20.12
2022-09-05T21:19:55.501Z,20.04
2022-09-05T21:20:01.857Z,20.04
2022-09-05T21:25:03.440Z,19.94
2022-09-05T21:30:04.915Z,19.82
2022-09-05T21:35:15.531Z,19.68
2022-09-05T21:40:07.945Z,19.6
2022-09-05T21:47:45.440Z,19.59
2022-09-05T21:50:11.122Z,19.52
2022-09-05T21:59:15.507Z,19.39
2022-09-05T22:15:28.609Z,19.11
2022-09-05T22:20:21.047Z,19.01
2022-09-05T22:25:22.239Z,18.94
2022-09-05T22:30:24.261Z,18.91
2022-09-05T22:35:28.115Z,18.91
2022-09-05T22:40:27.810Z,18.81
2022-09-05T22:45:29.703Z,18.74
2022-09-05T22:50:31.615Z,18.7
2022-09-05T22:55:33.783Z,18.62
2022-09-05T23:00:35.718Z,18.54
2022-09-05T23:05:37.409Z,18.44
2022-09-05T23:10:39.564Z,18.35
2022-09-05T23:15:41.781Z,18.29
2022-09-05T23:20:43.572Z,18.29
2022-09-05T23:25:45.478Z,18.28
2022-09-05T23:30:47.445Z,18.19
2022-09-05T23:35:48.632Z,18.17
2022-09-05T23:40:50.430Z,18.14
2022-09-05T23:45:51.908Z,18.04
2022-09-05T23:50:53.335Z,18.01
2022-09-05T23:55:54.616Z,17.94
